createdAt,value
2022-12-17T00:02:19.324Z,22.30
2022-12-17T00:05:04.306Z,20.55
2022-12-17T00:07:49.638Z,19.02
2022-12-17T00:10:34.704Z,22.15
2022-12-17T00:13:20.033Z,21.85
2022-12-17T00:16:10.286Z,21.40
2022-12-17T00:18:55.412Z,19.67
2022-12-17T00:21:41.812Z,20.25
2022-12-17T00:24:27.064Z,19.70
2022-12-17T00:27:11.849Z,21.58
2022-12-17T00:29:57.182Z,20.55
2022-12-17T00:32:42.793Z,20.90
2022-12-17T00:35:27.602Z,21.05
2022-12-17T00:38:12.678Z,19.83
2022-12-17T00:40:58.071Z,21.42
2022-12-17T00:43:43.308Z,21.15
2022-12-17T00:46:28.731Z,21.40
2022-12-17T00:49:13.847Z,22.05
2022-12-17T00:51:59.255Z,20.27
2022-12-17T00:54:44.621Z,20.75
2022-12-17T00:57:30.020Z,21.85
2022-12-17T01:00:15.206Z,20.88
2022-12-17T01:03:00.222Z,21.40
2022-12-17T01:05:45.561Z,21.20
2022-12-17T01:08:33.598Z,21.30
2022-12-17T01:11:20.265Z,20.60
2022-12-17T01:14:05.450Z,21.55
2022-12-17T01:16:50.325Z,20.23
2022-12-17T01:19:35.577Z,20.73
2022-12-17T01:22:20.907Z,21.02
2022-12-17T01:25:06.471Z,20.48
2022-12-17T01:27:51.704Z,21.13
2022-12-17T01:30:37.228Z,21.15
2022-12-17T01:33:28.467Z,19.92
2022-12-17T01:36:17.472Z,19.42
2022-12-17T01:39:02.712Z,19.77
2022-12-17T01:41:48.148Z,21.55
2022-12-17T01:45:12.084Z,21.77
2022-12-17T01:48:03.040Z,20.25
2022-12-17T01:50:52.915Z,20.60
2022-12-17T01:53:42.938Z,21.13
2022-12-17T01:56:29.532Z,22.73
2022-12-17T01:59:15.225Z,20.33
2022-12-17T02:02:00.553Z,20.02
2022-12-17T02:04:51.222Z,24.42
2022-12-17T02:07:42.254Z,26.35
2022-12-17T02:10:36.495Z,23.75
2022-12-17T02:13:31.189Z,25.60
2022-12-17T02:16:27.688Z,28.23
2022-12-17T02:19:24.539Z,25.02
2022-12-17T02:22:36.899Z,24.15
2022-12-17T02:25:35.268Z,23.35
2022-12-17T02:28:21.021Z,22.53
2022-12-17T02:31:06.341Z,21.77
2022-12-17T02:33:51.708Z,23.05
2022-12-17T02:36:36.872Z,23.42
2022-12-17T02:39:22.238Z,22.67
2022-12-17T02:42:11.753Z,22.02
2022-12-17T02:44:59.523Z,21.55
2022-12-17T02:47:58.557Z,22.05
2022-12-17T02:50:43.316Z,22.08
2022-12-17T02:53:28.621Z,22.52
2022-12-17T02:56:13.834Z,24.08
2022-12-17T02:58:59.164Z,22.52
2022-12-17T03:01:44.538Z,22.30
2022-12-17T03:04:29.771Z,19.90
2022-12-17T03:07:15.067Z,19.85
2022-12-17T03:10:00.163Z,21.75
2022-12-17T03:12:45.440Z,22.20
2022-12-17T03:15:30.669Z,21.85
2022-12-17T03:18:15.524Z,20.52
2022-12-17T03:21:00.692Z,20.08
2022-12-17T03:23:45.865Z,18.92
2022-12-17T03:26:30.973Z,19.75
2022-12-17T03:29:16.171Z,20.73
2022-12-17T03:32:01.209Z,20.40
2022-12-17T03:34:46.636Z,20.85
2022-12-17T03:37:31.765Z,20.15
2022-12-17T03:40:17.133Z,18.42
2022-12-17T03:43:02.626Z,20.20
2022-12-17T03:45:47.993Z,18.95
2022-12-17T03:48:34.208Z,20.20
2022-12-17T03:51:20.384Z,19.65
2022-12-17T03:54:06.204Z,19.27
2022-12-17T03:56:51.756Z,19.35
2022-12-17T03:59:36.893Z,19.27
2022-12-17T04:02:22.198Z,19.05
2022-12-17T04:05:07.423Z,18.77
2022-12-17T04:07:52.702Z,18.65
2022-12-17T04:10:38.228Z,17.88
2022-12-17T04:13:23.726Z,15.52
2022-12-17T04:16:09.344Z,15.73
2022-12-17T04:18:54.557Z,15.65
2022-12-17T04:21:39.625Z,15.65
2022-12-17T04:24:25.219Z,15.73
2022-12-17T04:27:15.078Z,15.77
2022-12-17T04:29:59.893Z,14.98
2022-12-17T04:32:44.820Z,14.30
2022-12-17T04:35:30.152Z,13.77
2022-12-17T04:38:15.637Z,14.57
2022-12-17T04:41:00.492Z,15.57
2022-12-17T04:43:45.433Z,12.63
2022-12-17T04:46:30.688Z,12.48
2022-12-17T04:49:15.876Z,12.18
2022-12-17T04:52:00.918Z,14.70
2022-12-17T04:54:45.727Z,14.18
2022-12-17T04:57:31.091Z,12.80
2022-12-17T05:00:16.458Z,13.73
2022-12-17T05:03:01.793Z,15.02
2022-12-17T05:05:47.328Z,15.15
2022-12-17T05:08:35.686Z,14.45
2022-12-17T05:11:35.946Z,15.82
2022-12-17T05:14:21.269Z,14.40
2022-12-17T05:17:06.724Z,15.07
2022-12-17T05:19:52.005Z,15.30
2022-12-17T05:22:37.047Z,13.48
2022-12-17T05:25:22.567Z,13.45
2022-12-17T05:28:07.367Z,15.48
2022-12-17T05:30:52.486Z,16.33
2022-12-17T05:33:37.900Z,14.85
2022-12-17T05:36:23.738Z,14.73
2022-12-17T05:39:09.155Z,14.00
2022-12-17T05:41:54.492Z,14.20
2022-12-17T05:44:39.918Z,14.05
2022-12-17T05:47:25.156Z,14.43
2022-12-17T05:50:10.506Z,13.85
2022-12-17T05:52:55.724Z,15.65
2022-12-17T05:55:40.574Z,15.10
2022-12-17T05:58:29.348Z,13.55
2022-12-17T06:01:19.762Z,14.35
2022-12-17T06:04:05.991Z,14.48
2022-12-17T06:06:51.633Z,14.40
2022-12-17T06:09:37.457Z,15.00
2022-12-17T06:12:22.738Z,14.38
2022-12-17T06:15:07.971Z,14.27
2022-12-17T06:17:52.763Z,12.80
2022-12-17T06:20:38.072Z,14.48
2022-12-17T06:23:26.055Z,15.25
2022-12-17T06:26:11.613Z,13.30
2022-12-17T06:28:56.627Z,13.32
2022-12-17T06:31:41.947Z,13.35
2022-12-17T06:34:27.279Z,13.32
2022-12-17T06:37:12.594Z,13.02
2022-12-17T06:39:57.620Z,12.95
2022-12-17T06:42:42.979Z,12.93
2022-12-17T06:45:28.406Z,14.38
2022-12-17T06:48:27.582Z,11.68
2022-12-17T06:53:58.772Z,11.57
2022-12-17T06:56:44.044Z,12.13
2022-12-17T06:59:29.021Z,12.50
2022-12-17T07:02:14.651Z,11.98
2022-12-17T07:04:59.754Z,12.35
2022-12-17T07:07:45.251Z,14.52
2022-12-17T07:10:30.433Z,13.40
2022-12-17T07:13:23.250Z,15.27
2022-12-17T07:16:09.138Z,14.93
2022-12-17T07:18:55.544Z,12.77
2022-12-17T07:21:40.840Z,13.85
2022-12-17T07:24:26.153Z,13.70
2022-12-17T07:27:11.560Z,13.48
2022-12-17T07:29:56.584Z,16.10
2022-12-17T07:32:41.963Z,13.43
2022-12-17T07:35:27.029Z,14.93
2022-12-17T07:38:22.910Z,13.52
2022-12-17T07:41:08.214Z,13.15
2022-12-17T07:43:53.751Z,15.65
2022-12-17T07:46:39.003Z,17.65
2022-12-17T07:49:26.225Z,16.10
2022-12-17T07:52:12.073Z,14.93
2022-12-17T07:54:57.239Z,15.35
2022-12-17T07:57:42.448Z,15.63
2022-12-17T08:00:28.187Z,14.23
2022-12-17T08:03:17.757Z,14.38
2022-12-17T08:06:03.136Z,15.77
2022-12-17T08:08:48.116Z,16.35
2022-12-17T08:11:33.529Z,14.80
2022-12-17T08:14:18.894Z,14.02
2022-12-17T08:17:04.362Z,17.00
2022-12-17T08:19:49.868Z,15.77
2022-12-17T08:22:35.218Z,14.77
2022-12-17T08:25:20.703Z,14.55
2022-12-17T08:28:11.169Z,14.95
2022-12-17T08:31:01.391Z,15.73
2022-12-17T08:33:46.538Z,21.20
2022-12-17T08:36:31.629Z,17.75
2022-12-17T08:39:16.415Z,16.45
2022-12-17T08:42:04.560Z,14.88
2022-12-17T08:44:49.993Z,14.63
2022-12-17T08:47:35.341Z,14.20
2022-12-17T08:50:21.454Z,15.02
2022-12-17T08:53:06.789Z,14.68
2022-12-17T08:55:51.847Z,14.32
2022-12-17T08:58:37.263Z,14.98
2022-12-17T09:01:22.536Z,14.50
2022-12-17T09:04:07.822Z,14.48
2022-12-17T09:06:52.922Z,15.50
2022-12-17T09:09:38.075Z,14.15
2022-12-17T09:12:23.169Z,14.80
2022-12-17T09:15:08.246Z,13.48
2022-12-17T09:17:56.595Z,14.85
2022-12-17T09:20:41.935Z,16.00
2022-12-17T09:23:27.200Z,13.68
2022-12-17T09:26:14.795Z,13.48
2022-12-17T09:29:00.957Z,13.75
2022-12-17T09:31:46.439Z,14.93
2022-12-17T09:34:32.100Z,14.55
2022-12-17T09:37:17.364Z,14.75
2022-12-17T09:40:02.649Z,16.02
2022-12-17T09:43:05.571Z,14.25
2022-12-17T09:46:13.947Z,14.43
2022-12-17T09:49:19.644Z,14.07
2022-12-17T09:52:05.525Z,15.07
2022-12-17T09:55:00.801Z,14.40
2022-12-17T09:57:53.874Z,18.50
2022-12-17T10:00:43.277Z,15.38
2022-12-17T10:03:38.597Z,16.90
2022-12-17T10:06:30.682Z,14.77
2022-12-17T10:09:20.120Z,15.07
2022-12-17T10:12:05.488Z,15.23
2022-12-17T10:14:50.932Z,14.23
2022-12-17T10:17:41.699Z,13.63
2022-12-17T10:20:56.791Z,13.55
2022-12-17T10:23:52.770Z,12.82
2022-12-17T10:26:41.560Z,12.88
2022-12-17T10:29:36.206Z,14.20
2022-12-17T10:32:34.892Z,13.73
2022-12-17T10:35:52.900Z,13.77
2022-12-17T10:38:40.592Z,12.48
2022-12-17T10:41:46.363Z,13.05
2022-12-17T10:44:57.633Z,14.60
2022-12-17T10:47:45.067Z,14.88
2022-12-17T10:50:34.922Z,15.07
2022-12-17T10:53:21.049Z,13.98
2022-12-17T10:56:15.977Z,14.80
2022-12-17T10:59:09.956Z,16.10
2022-12-17T11:01:58.921Z,15.70
2022-12-17T11:04:52.656Z,19.73
2022-12-17T11:07:48.088Z,28.40
2022-12-17T11:10:40.412Z,14.95
2022-12-17T11:13:34.709Z,15.13
2022-12-17T11:16:21.426Z,16.05
2022-12-17T11:19:23.241Z,15.85
2022-12-17T11:22:11.059Z,33.78
2022-12-17T11:25:02.704Z,14.93
2022-12-17T11:27:55.072Z,14.75
2022-12-17T11:30:41.013Z,17.85
2022-12-17T11:33:40.407Z,17.05
2022-12-17T11:36:38.664Z,16.83
2022-12-17T11:39:51.252Z,16.35
2022-12-17T11:43:01.743Z,15.55
2022-12-17T11:45:54.657Z,16.83
2022-12-17T11:49:02.861Z,15.30
2022-12-17T11:52:05.863Z,15.95
2022-12-17T11:55:07.562Z,15.27
2022-12-17T11:58:14.504Z,17.13
2022-12-17T12:01:39.597Z,16.25
2022-12-17T12:04:39.943Z,15.93
2022-12-17T12:07:49.203Z,15.48
2022-12-17T12:10:43.551Z,18.17
2022-12-17T12:14:02.444Z,15.65
2022-12-17T12:16:58.463Z,18.60
2022-12-17T12:20:03.098Z,16.55
2022-12-17T12:23:00.570Z,17.88
2022-12-17T12:26:15.069Z,17.63
2022-12-17T12:29:13.452Z,17.48
2022-12-17T12:32:06.918Z,18.33
2022-12-17T12:34:56.375Z,19.52
2022-12-17T12:37:42.751Z,21.23
2022-12-17T12:40:40.183Z,19.73
2022-12-17T12:43:42.644Z,19.83
2022-12-17T12:46:40.052Z,20.15
2022-12-17T12:49:31.112Z,20.02
2022-12-17T12:52:18.649Z,20.45
2022-12-17T12:55:03.559Z,20.33
2022-12-17T12:57:54.640Z,20.30
2022-12-17T13:00:45.689Z,20.17
2022-12-17T13:03:54.914Z,19.98
2022-12-17T13:09:30.886Z,19.35
2022-12-17T13:12:01.992Z,18.95
2022-12-17T13:14:31.356Z,19.83
2022-12-17T13:19:31.440Z,20.13
2022-12-17T13:22:10.767Z,20.05
2022-12-17T13:27:04.774Z,20.50
2022-12-17T13:29:37.792Z,20.55
2022-12-17T13:32:12.031Z,18.40
2022-12-17T13:34:53.681Z,20.95
2022-12-17T13:37:23.211Z,21.23
2022-12-17T13:39:52.994Z,18.80
2022-12-17T13:42:28.603Z,19.98
2022-12-17T13:44:56.517Z,19.88
2022-12-17T13:47:30.563Z,19.45
2022-12-17T13:52:46.882Z,20.13
2022-12-17T13:55:25.951Z,19.70
2022-12-17T13:57:53.988Z,21.02
2022-12-17T14:00:25.952Z,20.73
2022-12-17T14:02:53.755Z,19.75
2022-12-17T14:05:37.522Z,19.92
2022-12-17T14:08:05.985Z,21.48
2022-12-17T14:10:33.652Z,21.20
2022-12-17T14:13:14.715Z,21.08
2022-12-17T14:15:48.444Z,19.55
2022-12-17T14:18:18.246Z,19.92
2022-12-17T14:20:45.661Z,21.27
2022-12-17T14:23:33.427Z,18.77
2022-12-17T14:26:00.289Z,19.80
2022-12-17T14:28:31.175Z,18.73
2022-12-17T14:31:26.488Z,19.65
2022-12-17T14:34:20.202Z,19.77
2022-12-17T14:36:47.648Z,21.50
2022-12-17T14:39:32.903Z,21.42
2022-12-17T14:42:25.559Z,21.33
2022-12-17T14:45:07.969Z,20.38
2022-12-17T14:47:36.753Z,21.42
2022-12-17T14:50:12.350Z,21.52
2022-12-17T14:52:50.687Z,19.70
2022-12-17T14:55:36.609Z,21.70
2022-12-17T14:58:14.875Z,20.50
2022-12-17T15:01:09.483Z,20.50
2022-12-17T15:03:42.164Z,20.30
2022-12-17T15:06:11.911Z,20.77
2022-12-17T15:08:47.350Z,19.83
2022-12-17T15:11:16.599Z,23.52
2022-12-17T15:16:11.015Z,23.52
2022-12-17T15:18:38.474Z,24.77
2022-12-17T15:21:05.960Z,24.48
2022-12-17T15:23:33.641Z,24.85
2022-12-17T15:26:00.271Z,26.02
2022-12-17T15:28:27.091Z,25.13
2022-12-17T15:30:53.778Z,25.80
2022-12-17T15:33:20.592Z,24.55
2022-12-17T15:35:47.526Z,24.45
2022-12-17T15:38:14.185Z,22.40
2022-12-17T15:40:41.225Z,23.13
2022-12-17T15:43:13.838Z,21.55
2022-12-17T15:45:42.843Z,22.20
2022-12-17T15:48:10.841Z,22.65
2022-12-17T15:50:38.325Z,21.77
2022-12-17T15:53:05.592Z,21.92
2022-12-17T15:55:32.607Z,26.23
2022-12-17T15:57:59.293Z,28.77
2022-12-17T16:00:26.016Z,30.30
2022-12-17T16:02:53.181Z,27.08
2022-12-17T16:05:21.019Z,33.33
2022-12-17T16:07:48.089Z,27.13
2022-12-17T16:10:15.279Z,36.75
2022-12-17T16:12:42.503Z,50.42
2022-12-17T16:15:10.442Z,55.13
2022-12-17T16:17:37.168Z,74.90
2022-12-17T16:20:05.798Z,65.20
2022-12-17T16:22:32.860Z,47.53
2022-12-17T16:24:59.513Z,43.53
2022-12-17T16:27:26.133Z,30.95
2022-12-17T16:29:52.781Z,31.63
2022-12-17T16:32:20.107Z,29.58
2022-12-17T16:34:46.959Z,41.58
2022-12-17T16:37:14.928Z,36.72
2022-12-17T16:39:41.524Z,37.45
2022-12-17T16:42:08.154Z,52.35
2022-12-17T16:44:34.935Z,42.40
2022-12-17T16:47:01.714Z,30.75
2022-12-17T16:49:28.615Z,37.47
2022-12-17T16:51:57.924Z,36.00
2022-12-17T16:54:27.278Z,47.03
2022-12-17T16:56:54.823Z,32.05
2022-12-17T16:59:22.178Z,30.05
2022-12-17T17:01:50.436Z,26.27
2022-12-17T17:04:19.503Z,37.33
2022-12-17T17:06:49.277Z,29.83
2022-12-17T17:09:17.510Z,31.88
2022-12-17T17:11:49.473Z,31.77
2022-12-17T17:14:18.275Z,32.90
2022-12-17T17:16:44.999Z,30.17
2022-12-17T17:19:11.817Z,29.58
2022-12-17T17:21:59.851Z,29.23
2022-12-17T17:24:26.702Z,30.48
2022-12-17T17:27:00.368Z,30.58
2022-12-17T17:29:27.053Z,29.85
2022-12-17T17:32:09.910Z,29.00
2022-12-17T17:34:39.108Z,31.50
2022-12-17T17:37:05.876Z,27.23
2022-12-17T17:39:34.338Z,30.65
2022-12-17T17:42:01.488Z,37.00
2022-12-17T17:44:28.253Z,31.63
2022-12-17T17:46:54.888Z,31.88
2022-12-17T17:49:22.375Z,35.00
2022-12-17T17:52:09.084Z,30.58
2022-12-17T17:54:36.416Z,40.65
2022-12-17T17:57:03.021Z,32.42
2022-12-17T17:59:33.848Z,31.98
2022-12-17T18:02:02.823Z,34.88
2022-12-17T18:04:29.861Z,24.52
2022-12-17T18:09:43.176Z,29.33
2022-12-17T18:12:28.250Z,30.90
2022-12-17T18:17:41.469Z,28.73
2022-12-17T18:20:09.831Z,26.92
2022-12-17T18:22:36.753Z,27.95
2022-12-17T18:25:03.652Z,28.02
2022-12-17T18:27:30.224Z,29.00
2022-12-17T18:29:56.982Z,26.85
2022-12-17T18:32:23.614Z,27.92
2022-12-17T18:34:50.278Z,29.80
2022-12-17T18:37:16.904Z,36.47
2022-12-17T18:39:43.705Z,31.10
2022-12-17T18:42:28.916Z,24.98
2022-12-17T18:44:55.697Z,24.15
2022-12-17T18:47:22.283Z,23.52
2022-12-17T18:49:49.032Z,22.55
2022-12-17T18:52:17.362Z,25.70
2022-12-17T18:54:44.400Z,25.10
2022-12-17T18:57:11.171Z,23.88
2022-12-17T18:59:38.590Z,24.30
2022-12-17T19:02:05.343Z,25.25
2022-12-17T19:04:33.174Z,28.85
2022-12-17T19:07:00.279Z,23.80
2022-12-17T19:09:31.123Z,22.98
2022-12-17T19:11:58.639Z,23.58
2022-12-17T19:14:25.808Z,23.63
2022-12-17T19:16:54.957Z,24.83
2022-12-17T19:21:49.767Z,20.77
2022-12-17T19:24:18.609Z,23.35
2022-12-17T19:26:46.007Z,21.92
2022-12-17T19:29:14.457Z,25.23
2022-12-17T19:31:41.561Z,23.60
2022-12-17T19:34:11.629Z,21.52
2022-12-17T19:36:40.087Z,22.33
2022-12-17T19:39:08.811Z,22.42
2022-12-17T19:41:35.457Z,29.00
2022-12-17T19:44:05.563Z,27.52
2022-12-17T19:46:34.572Z,21.48
2022-12-17T19:49:02.019Z,23.48
2022-12-17T19:51:30.743Z,23.65
2022-12-17T19:54:00.747Z,28.55
2022-12-17T19:56:33.529Z,24.35
2022-12-17T19:59:02.493Z,22.48
2022-12-17T20:01:31.855Z,21.85
2022-12-17T20:03:59.453Z,24.48
2022-12-17T20:06:31.181Z,22.27
2022-12-17T20:08:59.445Z,24.13
2022-12-17T20:11:33.134Z,21.83
2022-12-17T20:14:03.019Z,20.25
2022-12-17T20:16:32.781Z,23.02
2022-12-17T20:19:01.121Z,21.25
2022-12-17T20:21:28.259Z,22.53
2022-12-17T20:23:57.015Z,27.65
2022-12-17T20:26:24.300Z,24.30
2022-12-17T20:28:51.348Z,22.23
2022-12-17T20:31:18.436Z,23.52
2022-12-17T20:33:45.252Z,24.00
2022-12-17T20:36:15.255Z,21.40
2022-12-17T20:38:43.122Z,26.23
2022-12-17T20:41:11.911Z,24.00
2022-12-17T20:43:38.786Z,23.40
2022-12-17T20:46:06.539Z,22.73
2022-12-17T20:48:33.374Z,24.73
2022-12-17T20:51:05.325Z,26.48
2022-12-17T20:53:33.252Z,27.80
2022-12-17T20:56:04.976Z,24.90
2022-12-17T20:58:31.658Z,26.30
2022-12-17T21:01:06.403Z,24.30
2022-12-17T21:03:34.108Z,26.05
2022-12-17T21:06:22.227Z,23.63
2022-12-17T21:08:51.140Z,25.03
2022-12-17T21:11:20.186Z,29.85
2022-12-17T21:13:46.955Z,26.83
2022-12-17T21:16:16.910Z,26.40
2022-12-17T21:18:43.619Z,26.58
2022-12-17T21:21:22.972Z,27.33
2022-12-17T21:23:50.450Z,25.17
2022-12-17T21:26:18.687Z,26.13
2022-12-17T21:28:47.325Z,27.47
2022-12-17T21:31:30.163Z,40.50
2022-12-17T21:33:59.673Z,29.35
2022-12-17T21:36:28.724Z,29.15
2022-12-17T21:38:55.889Z,25.63
2022-12-17T21:41:28.354Z,29.05
2022-12-17T21:43:57.803Z,29.13
2022-12-17T21:46:27.172Z,27.92
2022-12-17T21:48:54.065Z,26.67
2022-12-17T21:51:21.255Z,27.50
2022-12-17T21:53:49.113Z,28.48
2022-12-17T21:56:18.011Z,28.92
2022-12-17T22:01:19.183Z,28.15
2022-12-17T22:03:50.223Z,28.33
2022-12-17T22:06:23.456Z,27.92
2022-12-17T22:08:52.237Z,28.02
2022-12-17T22:11:24.835Z,26.10
2022-12-17T22:14:15.578Z,25.70
2022-12-17T22:16:49.299Z,26.27
2022-12-17T22:19:21.979Z,27.63
2022-12-17T22:21:50.872Z,25.75
2022-12-17T22:24:21.257Z,25.15
2022-12-17T22:26:48.598Z,26.40
2022-12-17T22:29:34.281Z,27.23
2022-12-17T22:32:19.810Z,26.48
2022-12-17T22:35:12.141Z,29.27
2022-12-17T22:42:06.262Z,25.13
2022-12-17T22:44:33.456Z,27.65
2022-12-17T22:44:40.696Z,28.70
2022-12-17T22:46:17.110Z,25.65
2022-12-17T22:48:43.940Z,27.60
2022-12-17T22:51:13.349Z,28.25
2022-12-17T22:53:48.298Z,27.20
2022-12-17T22:56:21.798Z,30.67
2022-12-17T22:59:02.147Z,27.73
2022-12-17T23:01:28.837Z,28.88
2022-12-17T23:03:57.487Z,29.58
2022-12-17T23:06:25.008Z,27.83
2022-12-17T23:08:52.260Z,27.92
2022-12-17T23:11:24.957Z,27.40
2022-12-17T23:13:54.188Z,28.63
2022-12-17T23:16:21.240Z,27.42
2022-12-17T23:18:49.824Z,26.40
2022-12-17T23:21:20.711Z,28.10
2022-12-17T23:23:47.579Z,26.77
2022-12-17T23:26:21.259Z,27.15
2022-12-17T23:28:48.439Z,26.45
2022-12-17T23:31:19.226Z,27.65
2022-12-17T23:33:46.637Z,25.02
2022-12-17T23:36:19.544Z,24.85
2022-12-17T23:38:47.700Z,25.95
2022-12-17T23:41:58.197Z,24.80
2022-12-17T23:44:24.882Z,25.58
2022-12-17T23:46:51.576Z,25.02
2022-12-17T23:49:18.420Z,24.80
2022-12-17T23:51:45.115Z,25.50
2022-12-17T23:54:11.853Z,26.33
2022-12-17T23:56:42.041Z,24.75
2022-12-17T23:59:12.346Z,22.67
